Time;durP1;ratioP1;P1;durP2;ratioP2;P2;SDS_P1;SDS_P2;PMS_P1;PMS_P2;Temp;Humidity;BMP_temperature;BMP_pressure;BME280_temperature;BME280_humidity;BME280_pressure;Samples;Min_cycle;Max_cycle;Signal;HPM_P1;HPM_P2
2019/10/03 00:02:15;;;;;;;1.43;1.33;;;;;;;20.18;55.46;100903.12;;;;-60
2019/10/03 00:05:04;;;;;;;1.30;1.20;;;;;;;20.19;55.48;100899.54;;;;-59
2019/10/03 00:08:02;;;;;;;1.23;1.13;;;;;;;20.18;55.47;100898.50;;;;-60
2019/10/03 00:11:02;;;;;;;1.31;1.21;;;;;;;20.17;55.46;100893.35;;;;-59
2019/10/03 00:14:03;;;;;;;1.41;1.30;;;;;;;20.18;55.50;100895.20;;;;-60
2019/10/03 00:17:02;;;;;;;1.46;1.36;;;;;;;20.17;55.44;100891.80;;;;-60
2019/10/03 00:20:03;;;;;;;2.16;1.49;;;;;;;20.17;55.45;100888.95;;;;-59
2019/10/03 00:23:02;;;;;;;1.27;1.19;;;;;;;20.16;55.50;100878.94;;;;-60
2019/10/03 00:26:02;;;;;;;1.40;1.30;;;;;;;20.16;55.45;100873.57;;;;-60
2019/10/03 00:29:02;;;;;;;1.33;1.20;;;;;;;20.15;55.43;100872.62;;;;-60
2019/10/03 00:32:02;;;;;;;2.19;1.31;;;;;;;20.15;55.43;100863.96;;;;-59
2019/10/03 00:35:02;;;;;;;1.40;1.30;;;;;;;20.14;55.45;100860.00;;;;-60
2019/10/03 00:38:02;;;;;;;1.49;1.20;;;;;;;20.14;55.43;100857.14;;;;-59
2019/10/03 00:41:02;;;;;;;1.42;1.32;;;;;;;20.14;55.42;100854.97;;;;-60
2019/10/03 00:44:02;;;;;;;2.41;1.30;;;;;;;20.13;55.40;100852.23;;;;-60
2019/10/03 00:47:02;;;;;;;4.39;1.33;;;;;;;20.12;55.42;100851.36;;;;-60
2019/10/03 00:50:03;;;;;;;1.33;1.23;;;;;;;20.13;55.40;100855.83;;;;-60
2019/10/03 00:53:02;;;;;;;1.83;1.30;;;;;;;20.13;55.42;100854.98;;;;-60
2019/10/03 00:56:02;;;;;;;1.32;1.18;;;;;;;20.13;55.40;100856.48;;;;-60
2019/10/03 00:59:02;;;;;;;1.57;1.27;;;;;;;20.13;55.39;100858.77;;;;-60
2019/10/03 01:02:02;;;;;;;1.31;1.20;;;;;;;20.12;55.38;100853.53;;;;-59
2019/10/03 01:05:02;;;;;;;1.14;1.10;;;;;;;20.11;55.40;100846.27;;;;-59
2019/10/03 01:08:02;;;;;;;1.31;1.21;;;;;;;20.11;55.41;100844.83;;;;-60
2019/10/03 01:11:02;;;;;;;1.30;1.20;;;;;;;20.11;55.38;100844.32;;;;-60
2019/10/03 01:14:02;;;;;;;1.35;1.24;;;;;;;20.11;55.37;100840.97;;;;-59
2019/10/03 01:17:02;;;;;;;1.30;1.20;;;;;;;20.11;55.35;100831.91;;;;-59
2019/10/03 01:20:02;;;;;;;1.30;1.20;;;;;;;20.10;55.33;100832.88;;;;-60
2019/10/03 01:23:02;;;;;;;1.31;1.21;;;;;;;20.09;55.35;100830.75;;;;-59
2019/10/03 01:26:02;;;;;;;1.40;1.30;;;;;;;20.09;55.37;100829.41;;;;-60
2019/10/03 01:29:02;;;;;;;1.30;1.20;;;;;;;20.10;55.36;100829.18;;;;-60
2019/10/03 01:32:02;;;;;;;1.40;1.30;;;;;;;20.08;55.37;100832.95;;;;-60
2019/10/03 01:35:02;;;;;;;1.33;1.22;;;;;;;20.08;55.34;100836.13;;;;-59
2019/10/03 01:38:02;;;;;;;1.30;1.20;;;;;;;20.07;55.33;100837.20;;;;-60
2019/10/03 01:41:02;;;;;;;1.30;1.20;;;;;;;20.07;55.32;100836.02;;;;-59
2019/10/03 01:44:02;;;;;;;1.31;1.21;;;;;;;20.07;55.32;100837.36;;;;-59
2019/10/03 01:47:02;;;;;;;2.43;1.30;;;;;;;20.08;55.32;100835.06;;;;-60
2019/10/03 01:50:02;;;;;;;1.36;1.26;;;;;;;20.07;55.30;100834.67;;;;-59
2019/10/03 01:53:03;;;;;;;1.39;1.29;;;;;;;20.06;55.29;100832.63;;;;-59
2019/10/03 01:56:03;;;;;;;1.29;1.19;;;;;;;20.05;55.33;100830.73;;;;-59
2019/10/03 01:59:02;;;;;;;1.36;1.23;;;;;;;20.05;55.35;100829.89;;;;-59
2019/10/03 02:02:02;;;;;;;1.36;1.26;;;;;;;20.04;55.33;100819.72;;;;-59
2019/10/03 02:05:02;;;;;;;1.45;1.35;;;;;;;20.04;55.31;100819.28;;;;-59
2019/10/03 02:08:02;;;;;;;1.30;1.20;;;;;;;20.03;55.31;100814.54;;;;-59
2019/10/03 02:11:08;;;;;;;1.30;1.20;;;;;;;20.05;55.31;100821.06;;;;-59
2019/10/03 02:14:02;;;;;;;1.35;1.25;;;;;;;20.03;55.31;100818.56;;;;-59
2019/10/03 02:17:02;;;;;;;1.40;1.30;;;;;;;20.04;55.32;100819.34;;;;-59
2019/10/03 02:20:03;;;;;;;1.61;1.25;;;;;;;20.03;55.30;100817.55;;;;-59
2019/10/03 02:23:02;;;;;;;1.49;1.39;;;;;;;20.03;55.26;100819.05;;;;-60
2019/10/03 02:26:02;;;;;;;1.29;1.19;;;;;;;20.03;55.30;100817.48;;;;-59
2019/10/03 02:29:02;;;;;;;1.30;1.20;;;;;;;20.02;55.27;100817.34;;;;-59
2019/10/03 02:32:02;;;;;;;1.21;1.11;;;;;;;20.02;55.28;100820.02;;;;-59
2019/10/03 02:35:02;;;;;;;1.40;1.30;;;;;;;20.02;55.25;100818.57;;;;-60
2019/10/03 02:38:02;;;;;;;1.49;1.21;;;;;;;20.02;55.26;100820.58;;;;-60
2019/10/03 02:41:02;;;;;;;1.84;1.20;;;;;;;20.02;55.28;100820.08;;;;-60
2019/10/03 02:44:02;;;;;;;1.39;1.29;;;;;;;20.01;55.26;100819.98;;;;-59
2019/10/03 02:47:02;;;;;;;1.38;1.28;;;;;;;20.01;55.24;100817.69;;;;-60
2019/10/03 02:50:02;;;;;;;1.44;1.31;;;;;;;20.01;55.25;100820.97;;;;-59
2019/10/03 02:53:03;;;;;;;1.25;1.15;;;;;;;20.01;55.25;100823.59;;;;-60
2019/10/03 02:56:03;;;;;;;1.30;1.20;;;;;;;20.00;55.22;100816.06;;;;-59
2019/10/03 02:59:02;;;;;;;1.32;1.22;;;;;;;20.00;55.20;100822.27;;;;-60
2019/10/03 03:02:02;;;;;;;1.30;1.20;;;;;;;20.00;55.21;100819.09;;;;-60
2019/10/03 03:05:02;;;;;;;1.37;1.27;;;;;;;20.00;55.21;100817.13;;;;-60
2019/10/03 03:08:02;;;;;;;1.18;1.11;;;;;;;19.99;55.20;100816.70;;;;-60
2019/10/03 03:11:02;;;;;;;1.39;1.20;;;;;;;19.99;55.17;100816.36;;;;-60
2019/10/03 03:14:02;;;;;;;1.61;1.40;;;;;;;19.99;55.18;100818.09;;;;-59
2019/10/03 03:17:02;;;;;;;1.30;1.20;;;;;;;19.98;55.20;100815.57;;;;-60
2019/10/03 03:20:12;;;;;;;1.17;1.10;;;;;;;19.98;55.20;100814.06;;;;-60
2019/10/03 03:23:10;;;;;;;1.30;1.20;;;;;;;19.98;55.17;100816.08;;;;-60
2019/10/03 03:26:03;;;;;;;1.30;1.20;;;;;;;19.99;55.19;100821.95;;;;-60
2019/10/03 03:29:02;;;;;;;1.30;1.20;;;;;;;19.98;55.18;100823.20;;;;-59
2019/10/03 03:32:02;;;;;;;1.22;1.16;;;;;;;19.98;55.17;100827.41;;;;-60
2019/10/03 03:35:03;;;;;;;1.38;1.28;;;;;;;19.98;55.16;100830.25;;;;-60
2019/10/03 03:38:02;;;;;;;1.26;1.16;;;;;;;19.97;55.16;100825.71;;;;-59
2019/10/03 03:41:03;;;;;;;1.27;1.17;;;;;;;19.97;55.15;100829.86;;;;-60
2019/10/03 03:44:02;;;;;;;1.12;1.12;;;;;;;19.96;55.17;100828.62;;;;-60
2019/10/03 03:47:03;;;;;;;1.11;1.10;;;;;;;19.97;55.15;100827.02;;;;-59
2019/10/03 03:50:02;;;;;;;1.10;1.10;;;;;;;19.96;55.16;100826.44;;;;-59
2019/10/03 03:53:03;;;;;;;1.59;1.20;;;;;;;19.97;55.16;100829.13;;;;-60
2019/10/03 03:56:02;;;;;;;1.42;1.30;;;;;;;19.98;55.12;100834.77;;;;-59
2019/10/03 03:59:02;;;;;;;1.20;1.10;;;;;;;19.97;55.11;100835.38;;;;-59
2019/10/03 04:02:02;;;;;;;1.30;1.20;;;;;;;19.96;55.11;100838.84;;;;-60
2019/10/03 04:05:03;;;;;;;1.28;1.18;;;;;;;19.96;55.11;100837.30;;;;-60
2019/10/03 04:08:02;;;;;;;1.21;1.19;;;;;;;19.95;55.12;100833.59;;;;-59
2019/10/03 04:11:02;;;;;;;1.30;1.20;;;;;;;19.96;55.11;100838.03;;;;-60
2019/10/03 04:14:02;;;;;;;1.35;1.25;;;;;;;19.94;55.13;100836.06;;;;-60
2019/10/03 04:17:02;;;;;;;1.39;1.20;;;;;;;19.94;55.12;100839.42;;;;-59
2019/10/03 04:20:02;;;;;;;1.29;1.19;;;;;;;19.94;55.12;100847.97;;;;-60
2019/10/03 04:23:02;;;;;;;1.30;1.20;;;;;;;19.94;55.13;100854.50;;;;-60
2019/10/03 04:26:02;;;;;;;1.43;1.33;;;;;;;19.94;55.08;100861.44;;;;-60
2019/10/03 04:29:02;;;;;;;1.51;1.39;;;;;;;19.94;55.10;100867.14;;;;-60
2019/10/03 04:32:02;;;;;;;1.37;1.27;;;;;;;19.94;55.12;100871.39;;;;-60
2019/10/03 04:35:02;;;;;;;1.54;1.21;;;;;;;19.93;55.10;100874.03;;;;-59
2019/10/03 04:38:02;;;;;;;1.29;1.20;;;;;;;19.93;55.13;100877.28;;;;-59
2019/10/03 04:41:02;;;;;;;1.67;1.29;;;;;;;19.91;55.12;100878.16;;;;-60
2019/10/03 04:44:02;;;;;;;1.18;1.11;;;;;;;19.93;55.11;100880.13;;;;-60
2019/10/03 04:47:02;;;;;;;1.30;1.20;;;;;;;19.92;55.11;100880.28;;;;-60
2019/10/03 04:50:02;;;;;;;1.23;1.13;;;;;;;19.92;55.11;100877.77;;;;-60
2019/10/03 04:53:02;;;;;;;1.30;1.20;;;;;;;19.91;55.07;100872.30;;;;-59
2019/10/03 04:56:02;;;;;;;1.40;1.30;;;;;;;19.92;55.09;100869.69;;;;-59
2019/10/03 04:59:02;;;;;;;1.22;1.17;;;;;;;19.91;55.12;100876.95;;;;-51
2019/10/03 05:02:08;;;;;;;1.35;1.25;;;;;;;19.91;55.09;100876.83;;;;-50
2019/10/03 05:05:07;;;;;;;1.15;1.10;;;;;;;19.92;55.08;100871.53;;;;-51
2019/10/03 05:08:03;;;;;;;1.11;1.11;;;;;;;19.92;55.10;100878.23;;;;-50
2019/10/03 05:11:02;;;;;;;1.30;1.20;;;;;;;19.90;55.08;100879.18;;;;-50
2019/10/03 05:14:02;;;;;;;1.29;1.17;;;;;;;19.90;55.08;100879.45;;;;-50
2019/10/03 05:17:03;;;;;;;1.30;1.20;;;;;;;19.90;55.09;100881.53;;;;-50
2019/10/03 05:20:02;;;;;;;1.37;1.27;;;;;;;19.90;55.11;100880.86;;;;-50
2019/10/03 05:23:02;;;;;;;1.43;1.32;;;;;;;19.90;55.08;100883.20;;;;-50
2019/10/03 05:26:03;;;;;;;1.33;1.25;;;;;;;19.90;55.08;100889.06;;;;-51
2019/10/03 05:29:02;;;;;;;1.27;1.17;;;;;;;19.89;55.06;100887.28;;;;-50
2019/10/03 05:32:02;;;;;;;1.30;1.20;;;;;;;19.90;55.05;100889.41;;;;-50
2019/10/03 05:35:03;;;;;;;1.30;1.20;;;;;;;19.89;55.09;100895.79;;;;-50
2019/10/03 05:38:02;;;;;;;1.27;1.20;;;;;;;19.90;55.09;100894.77;;;;-50
2019/10/03 05:41:02;;;;;;;1.31;1.21;;;;;;;19.89;55.12;100895.50;;;;-50
2019/10/03 05:44:02;;;;;;;1.33;1.23;;;;;;;19.89;55.12;100897.51;;;;-50
2019/10/03 05:47:02;;;;;;;1.26;1.16;;;;;;;19.90;55.05;100892.98;;;;-50
2019/10/03 05:50:02;;;;;;;1.44;1.30;;;;;;;19.89;55.09;100895.79;;;;-50
2019/10/03 05:53:02;;;;;;;1.32;1.22;;;;;;;19.89;55.04;100896.34;;;;-50
2019/10/03 05:56:02;;;;;;;1.87;1.49;;;;;;;19.89;55.05;100899.91;;;;-50
2019/10/03 05:59:02;;;;;;;1.33;1.23;;;;;;;19.88;55.09;100901.31;;;;-50
2019/10/03 06:02:02;;;;;;;1.25;1.15;;;;;;;19.89;55.04;100903.59;;;;-50
2019/10/03 06:05:02;;;;;;;1.40;1.30;;;;;;;19.88;55.05;100902.38;;;;-50
2019/10/03 06:08:02;;;;;;;1.33;1.23;;;;;;;19.88;55.06;100898.47;;;;-50
2019/10/03 06:11:02;;;;;;;1.36;1.26;;;;;;;19.87;55.04;100901.09;;;;-50
2019/10/03 06:14:02;;;;;;;1.40;1.30;;;;;;;19.88;55.04;100910.09;;;;-50
2019/10/03 06:17:02;;;;;;;1.22;1.15;;;;;;;19.88;55.03;100909.48;;;;-50
2019/10/03 06:20:03;;;;;;;2.53;1.22;;;;;;;19.91;55.06;100908.73;;;;-46
2019/10/03 06:23:02;;;;;;;1.54;1.32;;;;;;;19.90;55.06;100909.52;;;;-45
2019/10/03 06:26:03;;;;;;;1.46;1.19;;;;;;;19.91;55.06;100923.31;;;;-59
2019/10/03 06:29:02;;;;;;;2.15;1.23;;;;;;;19.90;55.08;100923.20;;;;-58
2019/10/03 06:32:02;;;;;;;1.30;1.20;;;;;;;19.90;55.16;100924.34;;;;-46
2019/10/03 06:35:03;;;;;;;1.30;1.20;;;;;;;19.92;55.21;100929.20;;;;-45
2019/10/03 06:38:03;;;;;;;1.87;1.20;;;;;;;19.92;55.22;100925.78;;;;-45
2019/10/03 06:41:03;;;;;;;1.53;1.30;;;;;;;19.93;55.23;100929.69;;;;-45
2019/10/03 06:44:03;;;;;;;1.39;1.29;;;;;;;19.94;55.23;100930.23;;;;-45
2019/10/03 06:47:02;;;;;;;3.55;1.74;;;;;;;19.84;54.15;100943.14;;;;-49
2019/10/03 06:50:03;;;;;;;3.31;1.71;;;;;;;19.87;53.83;100947.82;;;;-48
2019/10/03 06:53:02;;;;;;;2.04;1.30;;;;;;;19.89;54.10;100940.55;;;;-48
2019/10/03 06:56:02;;;;;;;1.91;1.33;;;;;;;19.88;54.26;100941.94;;;;-48
2019/10/03 06:59:02;;;;;;;1.38;1.28;;;;;;;19.87;54.36;100939.55;;;;-48
2019/10/03 07:02:02;;;;;;;2.85;1.45;;;;;;;19.88;54.40;100940.44;;;;-48
2019/10/03 07:05:02;;;;;;;2.81;1.40;;;;;;;19.88;54.42;100942.38;;;;-48
2019/10/03 07:08:02;;;;;;;1.70;1.40;;;;;;;19.87;54.50;100942.50;;;;-48
2019/10/03 07:11:02;;;;;;;1.43;1.33;;;;;;;19.88;54.55;100947.20;;;;-48
2019/10/03 07:14:02;;;;;;;2.04;1.40;;;;;;;19.88;54.55;100945.40;;;;-48
2019/10/03 07:17:02;;;;;;;1.65;1.41;;;;;;;19.88;54.56;100947.97;;;;-48
2019/10/03 07:20:02;;;;;;;1.61;1.42;;;;;;;19.87;54.59;100949.04;;;;-48
2019/10/03 07:23:02;;;;;;;2.19;1.49;;;;;;;19.87;54.66;100959.15;;;;-49
2019/10/03 07:26:02;;;;;;;1.63;1.30;;;;;;;19.87;54.64;100964.52;;;;-51
2019/10/03 07:29:03;;;;;;;1.59;1.31;;;;;;;19.87;54.65;100971.55;;;;-51
2019/10/03 07:32:18;;;;;;;3.01;1.39;;;;;;;19.86;54.68;100981.46;;;;-51
2019/10/03 07:35:06;;;;;;;1.88;1.21;;;;;;;19.86;54.68;100984.08;;;;-51
2019/10/03 07:38:02;;;;;;;1.67;1.47;;;;;;;19.87;54.71;100987.31;;;;-51
2019/10/03 07:41:02;;;;;;;1.61;1.26;;;;;;;19.86;54.73;100989.45;;;;-51
2019/10/03 07:44:02;;;;;;;1.45;1.23;;;;;;;19.85;54.74;100989.45;;;;-51
2019/10/03 07:47:02;;;;;;;1.83;1.27;;;;;;;19.86;54.79;100999.50;;;;-51
2019/10/03 07:50:02;;;;;;;2.39;1.40;;;;;;;19.86;54.79;100997.32;;;;-51
2019/10/03 07:53:02;;;;;;;1.40;1.24;;;;;;;19.85;54.76;101005.38;;;;-51
2019/10/03 07:56:02;;;;;;;1.33;1.23;;;;;;;19.85;54.77;101011.35;;;;-49
2019/10/03 07:59:02;;;;;;;1.69;1.30;;;;;;;19.87;54.78;101011.28;;;;-52
2019/10/03 08:02:02;;;;;;;2.23;1.54;;;;;;;19.90;54.72;101014.40;;;;-50
2019/10/03 08:05:02;;;;;;;1.60;1.42;;;;;;;19.89;54.68;101010.45;;;;-48
2019/10/03 08:08:02;;;;;;;2.49;1.47;;;;;;;19.89;54.77;101007.88;;;;-50
2019/10/03 08:11:02;;;;;;;2.88;1.39;;;;;;;19.90;54.88;101005.52;;;;-53
2019/10/03 08:14:02;;;;;;;3.67;1.43;;;;;;;19.92;54.93;101005.45;;;;-48
2019/10/03 08:17:03;;;;;;;2.91;1.43;;;;;;;19.96;54.89;101003.66;;;;-47
2019/10/03 08:20:02;;;;;;;2.90;1.32;;;;;;;19.95;54.86;101008.64;;;;-48
2019/10/03 08:23:02;;;;;;;1.47;1.32;;;;;;;19.94;54.92;101005.38;;;;-48
2019/10/03 08:26:03;;;;;;;1.48;1.31;;;;;;;19.95;54.97;101006.50;;;;-50
2019/10/03 08:29:02;;;;;;;4.78;1.57;;;;;;;19.96;55.07;101000.64;;;;-50
2019/10/03 08:32:02;;;;;;;1.94;1.30;;;;;;;19.97;55.03;100996.44;;;;-48
2019/10/03 08:35:03;;;;;;;2.21;1.40;;;;;;;19.99;55.00;101003.95;;;;-49
2019/10/03 08:38:02;;;;;;;3.55;1.48;;;;;;;19.97;54.97;101006.20;;;;-50
2019/10/03 08:41:02;;;;;;;3.71;1.44;;;;;;;19.97;54.96;101004.32;;;;-50
2019/10/03 08:44:02;;;;;;;2.05;1.38;;;;;;;19.96;54.98;100998.44;;;;-50
2019/10/03 08:47:02;;;;;;;1.67;1.36;;;;;;;19.95;55.03;100995.20;;;;-49
2019/10/03 08:50:02;;;;;;;2.01;1.43;;;;;;;19.94;54.95;100991.97;;;;-50
2019/10/03 08:53:02;;;;;;;1.64;1.42;;;;;;;19.95;54.94;100993.92;;;;-49
2019/10/03 08:56:02;;;;;;;1.79;1.55;;;;;;;19.95;54.92;100994.16;;;;-49
2019/10/03 08:59:02;;;;;;;2.31;1.40;;;;;;;19.94;54.88;100992.64;;;;-50
2019/10/03 09:02:04;;;;;;;2.04;1.35;;;;;;;19.94;54.89;100991.20;;;;-49
2019/10/03 09:05:02;;;;;;;1.90;1.49;;;;;;;19.94;54.91;100994.11;;;;-50
2019/10/03 09:08:02;;;;;;;2.73;1.55;;;;;;;19.97;54.86;100989.67;;;;-53
2019/10/03 09:11:02;;;;;;;1.70;1.31;;;;;;;19.97;54.86;100985.77;;;;-49
2019/10/03 09:14:02;;;;;;;2.26;1.45;;;;;;;19.97;55.01;100990.68;;;;-50
2019/10/03 09:17:02;;;;;;;1.60;1.39;;;;;;;19.98;55.19;100987.61;;;;-49
2019/10/03 09:20:02;;;;;;;2.69;1.40;;;;;;;19.99;55.20;100982.05;;;;-52
2019/10/03 09:23:02;;;;;;;2.24;1.55;;;;;;;19.99;55.27;100988.53;;;;-51
2019/10/03 09:26:02;;;;;;;2.04;1.39;;;;;;;20.00;55.30;100986.74;;;;-46
2019/10/03 09:29:02;;;;;;;1.95;1.56;;;;;;;20.01;55.22;100984.20;;;;-47
2019/10/03 09:32:02;;;;;;;4.35;1.49;;;;;;;20.02;55.20;100986.44;;;;-47
2019/10/03 09:35:02;;;;;;;2.53;1.52;;;;;;;20.04;55.09;100983.25;;;;-47
2019/10/03 09:38:02;;;;;;;2.47;1.43;;;;;;;20.03;55.10;100982.20;;;;-46
2019/10/03 09:41:02;;;;;;;2.76;1.54;;;;;;;20.04;55.11;100985.16;;;;-46
2019/10/03 09:44:02;;;;;;;2.41;1.48;;;;;;;20.05;54.91;100981.97;;;;-46
2019/10/03 09:47:02;;;;;;;3.19;1.60;;;;;;;20.05;55.02;100982.52;;;;-47
2019/10/03 09:50:03;;;;;;;2.99;1.50;;;;;;;20.04;55.16;100980.07;;;;-48
2019/10/03 09:53:03;;;;;;;2.61;1.65;;;;;;;20.05;55.13;100978.83;;;;-48
2019/10/03 09:56:02;;;;;;;2.09;1.51;;;;;;;20.06;55.04;100969.09;;;;-47
2019/10/03 09:59:02;;;;;;;2.77;1.59;;;;;;;20.07;55.08;100971.33;;;;-49
2019/10/03 10:02:02;;;;;;;2.35;1.46;;;;;;;20.07;55.05;100967.70;;;;-48
2019/10/03 10:05:02;;;;;;;2.71;1.63;;;;;;;20.08;54.99;100964.73;;;;-49
2019/10/03 10:08:02;;;;;;;2.13;1.55;;;;;;;20.08;54.96;100961.66;;;;-47
2019/10/03 10:11:02;;;;;;;3.90;1.80;;;;;;;20.09;54.81;100957.07;;;;-52
2019/10/03 10:14:02;;;;;;;2.04;1.67;;;;;;;20.09;54.88;100957.92;;;;-47
2019/10/03 10:17:02;;;;;;;3.01;1.71;;;;;;;20.08;54.84;100960.16;;;;-52
2019/10/03 10:20:03;;;;;;;2.40;1.56;;;;;;;20.10;54.78;100953.61;;;;-49
2019/10/03 10:23:02;;;;;;;2.55;1.49;;;;;;;20.09;54.70;100958.41;;;;-49
2019/10/03 10:26:02;;;;;;;3.92;1.50;;;;;;;20.09;54.66;100952.66;;;;-51
2019/10/03 10:29:02;;;;;;;3.11;1.68;;;;;;;20.10;54.56;100949.75;;;;-52
2019/10/03 10:32:02;;;;;;;4.09;1.59;;;;;;;20.12;53.50;100944.31;;;;-54
2019/10/03 10:35:02;;;;;;;4.30;1.60;;;;;;;20.10;54.50;100944.83;;;;-54
2019/10/03 10:38:02;;;;;;;4.43;1.72;;;;;;;20.08;54.42;100930.81;;;;-55
2019/10/03 10:41:02;;;;;;;2.73;1.80;;;;;;;20.10;54.34;100924.37;;;;-55
2019/10/03 10:44:02;;;;;;;4.68;1.61;;;;;;;20.10;54.36;100916.98;;;;-55
2019/10/03 10:47:02;;;;;;;3.89;1.75;;;;;;;20.10;54.44;100913.53;;;;-57
2019/10/03 10:50:02;;;;;;;2.57;1.71;;;;;;;20.11;54.50;100911.50;;;;-57
2019/10/03 10:53:02;;;;;;;4.59;1.68;;;;;;;20.11;54.59;100907.48;;;;-59
2019/10/03 10:56:02;;;;;;;3.05;1.59;;;;;;;20.11;54.57;100903.52;;;;-60
2019/10/03 10:59:02;;;;;;;2.76;1.72;;;;;;;20.10;54.60;100904.80;;;;-59
2019/10/03 11:02:02;;;;;;;4.44;1.61;;;;;;;20.08;54.66;100905.16;;;;-61
2019/10/03 11:05:02;;;;;;;2.57;1.49;;;;;;;20.08;54.63;100901.95;;;;-60
2019/10/03 11:08:02;;;;;;;3.85;1.62;;;;;;;20.07;54.62;100895.60;;;;-59
2019/10/03 11:11:02;;;;;;;2.55;1.59;;;;;;;20.05;54.63;100896.45;;;;-59
2019/10/03 11:14:02;;;;;;;2.32;1.58;;;;;;;20.04;54.65;100889.02;;;;-60
2019/10/03 11:17:02;;;;;;;2.35;1.58;;;;;;;20.04;54.64;100880.03;;;;-60
2019/10/03 11:20:02;;;;;;;2.23;1.65;;;;;;;20.03;54.66;100872.10;;;;-51
2019/10/03 11:23:02;;;;;;;2.58;1.43;;;;;;;20.03;54.67;100867.01;;;;-52
2019/10/03 11:26:02;;;;;;;2.51;1.46;;;;;;;20.03;54.64;100869.19;;;;-52
2019/10/03 11:29:02;;;;;;;2.57;1.66;;;;;;;20.02;54.66;100872.59;;;;-51
2019/10/03 11:32:17;;;;;;;2.69;1.38;;;;;;;20.04;54.66;100868.97;;;;-52
2019/10/03 11:35:02;;;;;;;2.01;1.50;;;;;;;20.02;54.64;100862.44;;;;-52
2019/10/03 11:38:02;;;;;;;2.03;1.45;;;;;;;20.03;54.66;100856.67;;;;-51
2019/10/03 11:41:02;;;;;;;2.23;1.53;;;;;;;20.03;54.71;100850.30;;;;-52
2019/10/03 11:44:02;;;;;;;2.54;1.47;;;;;;;20.02;54.71;100838.96;;;;-50
2019/10/03 11:47:02;;;;;;;1.98;1.44;;;;;;;20.01;54.73;100841.03;;;;-48
2019/10/03 11:50:02;;;;;;;1.94;1.41;;;;;;;20.01;54.74;100839.92;;;;-52
2019/10/03 11:53:02;;;;;;;2.25;1.60;;;;;;;20.01;54.78;100836.00;;;;-52
2019/10/03 11:56:02;;;;;;;4.33;1.80;;;;;;;19.95;52.33;100834.10;;;;-49
2019/10/03 12:02:02;;;;;;;4.21;2.05;;;;;;;19.81;51.25;100833.59;;;;-50
2019/10/03 12:05:02;;;;;;;4.84;2.11;;;;;;;19.73;49.97;100830.23;;;;-50
2019/10/03 12:08:02;;;;;;;4.53;1.91;;;;;;;19.81;51.02;100833.48;;;;-54
2019/10/03 12:11:02;;;;;;;2.86;1.80;;;;;;;19.86;51.80;100832.95;;;;-54
2019/10/03 12:14:02;;;;;;;3.97;1.95;;;;;;;19.89;52.13;100831.80;;;;-52
2019/10/03 12:17:02;;;;;;;5.07;1.88;;;;;;;19.92;52.25;100836.53;;;;-52
2019/10/03 12:20:02;;;;;;;4.51;1.84;;;;;;;19.94;52.57;100836.86;;;;-53
2019/10/03 12:23:02;;;;;;;3.83;1.89;;;;;;;19.95;52.76;100839.03;;;;-51
2019/10/03 12:26:02;;;;;;;3.52;1.83;;;;;;;19.96;52.94;100841.48;;;;-51
2019/10/03 12:29:02;;;;;;;4.05;1.93;;;;;;;19.97;53.07;100838.79;;;;-53
2019/10/03 12:32:02;;;;;;;2.93;1.66;;;;;;;19.97;53.20;100834.20;;;;-49
2019/10/03 12:35:02;;;;;;;4.57;2.05;;;;;;;19.99;53.20;100834.89;;;;-52
2019/10/03 12:38:02;;;;;;;3.59;1.67;;;;;;;20.00;53.22;100835.28;;;;-52
2019/10/03 12:41:06;;;;;;;4.01;1.74;;;;;;;19.98;53.29;100833.27;;;;-52
2019/10/03 12:44:02;;;;;;;3.77;1.87;;;;;;;19.98;53.37;100827.41;;;;-52
2019/10/03 12:47:02;;;;;;;3.16;1.78;;;;;;;19.97;53.43;100822.19;;;;-52
2019/10/03 12:50:02;;;;;;;3.52;1.91;;;;;;;19.97;53.46;100822.53;;;;-50
2019/10/03 12:53:02;;;;;;;2.77;1.56;;;;;;;19.97;53.50;100827.16;;;;-50
2019/10/03 12:56:02;;;;;;;3.28;1.79;;;;;;;19.97;53.56;100824.00;;;;-51
2019/10/03 12:59:02;;;;;;;2.97;1.88;;;;;;;19.96;53.60;100821.75;;;;-50
2019/10/03 13:02:02;;;;;;;2.67;1.70;;;;;;;19.95;53.64;100815.16;;;;-51
2019/10/03 13:05:02;;;;;;;3.43;1.80;;;;;;;19.96;53.65;100807.13;;;;-50
2019/10/03 13:08:02;;;;;;;2.98;1.66;;;;;;;19.96;53.70;100807.85;;;;-51
2019/10/03 13:11:02;;;;;;;2.83;1.75;;;;;;;19.94;53.71;100803.55;;;;-50
2019/10/03 13:14:02;;;;;;;3.31;1.71;;;;;;;19.94;53.74;100800.02;;;;-58
2019/10/03 13:17:02;;;;;;;2.34;1.67;;;;;;;19.95;53.78;100797.12;;;;-58
2019/10/03 13:20:02;;;;;;;4.16;1.83;;;;;;;19.96;53.77;100793.64;;;;-59
2019/10/03 13:23:02;;;;;;;4.25;1.79;;;;;;;19.95;53.79;100793.22;;;;-58
2019/10/03 13:26:02;;;;;;;1.86;1.56;;;;;;;19.95;53.82;100787.45;;;;-59
2019/10/03 13:29:02;;;;;;;2.46;1.71;;;;;;;19.95;53.82;100778.67;;;;-58
2019/10/03 13:32:02;;;;;;;2.83;1.64;;;;;;;19.96;53.82;100770.23;;;;-52
2019/10/03 13:35:02;;;;;;;2.19;1.64;;;;;;;19.95;53.88;100765.10;;;;-52
2019/10/03 13:38:02;;;;;;;2.22;1.58;;;;;;;19.95;53.91;100766.20;;;;-50
2019/10/03 13:41:02;;;;;;;3.21;1.63;;;;;;;19.94;53.90;100763.98;;;;-48
2019/10/03 13:44:02;;;;;;;2.01;1.61;;;;;;;19.94;53.93;100751.03;;;;-58
2019/10/03 13:47:02;;;;;;;2.19;1.71;;;;;;;19.93;53.98;100750.21;;;;-59
2019/10/03 13:50:02;;;;;;;2.37;1.57;;;;;;;19.93;53.98;100748.18;;;;-52
2019/10/03 13:53:02;;;;;;;2.20;1.51;;;;;;;19.94;54.00;100748.80;;;;-52
2019/10/03 13:56:02;;;;;;;2.76;1.71;;;;;;;19.94;54.00;100739.36;;;;-52
2019/10/03 13:59:02;;;;;;;2.86;1.65;;;;;;;19.94;54.06;100740.38;;;;-59
2019/10/03 14:02:02;;;;;;;1.87;1.54;;;;;;;19.94;54.06;100738.16;;;;-58
2019/10/03 14:05:02;;;;;;;1.73;1.45;;;;;;;19.94;54.06;100737.79;;;;-58
2019/10/03 14:13:02;;;;;;;1.98;1.51;;;;;;;19.94;54.08;100730.86;;;;-58
2019/10/03 14:16:02;;;;;;;2.09;1.65;;;;;;;19.95;54.07;100731.64;;;;-59
2019/10/03 14:19:02;;;;;;;4.23;1.65;;;;;;;19.96;54.08;100731.85;;;;-52
2019/10/03 14:22:02;;;;;;;7.55;1.91;;;;;;;20.01;54.18;100734.47;;;;-48
2019/10/03 14:25:02;;;;;;;5.93;1.77;;;;;;;20.02;54.30;100732.84;;;;-54
2019/10/03 14:28:02;;;;;;;15.60;2.15;;;;;;;20.08;54.38;100732.78;;;;-49
2019/10/03 14:31:02;;;;;;;5.49;1.71;;;;;;;20.11;54.50;100725.61;;;;-56
2019/10/03 14:34:02;;;;;;;8.78;1.90;;;;;;;20.13;54.55;100726.88;;;;-47
2019/10/03 14:37:02;;;;;;;3.89;1.63;;;;;;;20.12;54.67;100723.81;;;;-48
2019/10/03 14:40:02;;;;;;;7.98;1.79;;;;;;;20.16;54.94;100724.39;;;;-50
2019/10/03 14:43:02;;;;;;;6.43;1.93;;;;;;;20.18;54.91;100728.78;;;;-48
2019/10/03 14:46:02;;;;;;;6.52;1.79;;;;;;;20.18;54.91;100727.20;;;;-52
2019/10/03 14:49:02;;;;;;;8.10;2.01;;;;;;;20.20;54.91;100726.53;;;;-53
2019/10/03 14:52:02;;;;;;;12.37;2.15;;;;;;;20.22;55.03;100722.49;;;;-49
2019/10/03 14:55:02;;;;;;;8.02;2.04;;;;;;;20.26;54.82;100718.37;;;;-49
2019/10/03 14:58:05;;;;;;;7.19;1.99;;;;;;;20.27;54.88;100721.77;;;;-51
2019/10/03 15:01:02;;;;;;;9.57;2.07;;;;;;;20.25;54.88;100720.61;;;;-48
2019/10/03 15:04:02;;;;;;;18.60;2.41;;;;;;;20.28;55.12;100720.12;;;;-47
2019/10/03 15:07:02;;;;;;;10.32;2.01;;;;;;;20.30;55.12;100719.90;;;;-44
2019/10/03 15:10:02;;;;;;;6.91;1.86;;;;;;;20.31;54.96;100720.28;;;;-48
2019/10/03 15:13:02;;;;;;;9.89;2.10;;;;;;;20.33;55.09;100716.68;;;;-50
2019/10/03 15:16:02;;;;;;;9.17;2.04;;;;;;;20.34;55.18;100712.30;;;;-47
2019/10/03 15:19:02;;;;;;;14.61;2.39;;;;;;;20.33;55.30;100713.87;;;;-50
2019/10/03 15:22:03;;;;;;;10.55;2.21;;;;;;;20.34;55.11;100717.60;;;;-47
2019/10/03 15:25:03;;;;;;;14.16;2.60;;;;;;;20.35;55.08;100715.37;;;;-49
2019/10/03 15:28:11;;;;;;;14.44;2.13;;;;;;;20.35;55.07;100715.53;;;;-58
2019/10/03 15:31:08;;;;;;;7.95;2.08;;;;;;;20.36;55.13;100718.09;;;;-58
2019/10/03 15:34:02;;;;;;;9.79;2.25;;;;;;;20.35;55.08;100714.03;;;;-55
2019/10/03 15:37:02;;;;;;;8.74;2.32;;;;;;;20.34;55.14;100702.23;;;;-57
2019/10/03 15:40:02;;;;;;;9.69;2.31;;;;;;;20.37;55.16;100707.91;;;;-61
2019/10/03 15:43:02;;;;;;;15.88;2.25;;;;;;;20.36;55.21;100706.62;;;;-57
2019/10/03 15:46:02;;;;;;;6.23;2.22;;;;;;;20.35;55.08;100705.57;;;;-57
2019/10/03 15:49:02;;;;;;;7.83;1.99;;;;;;;20.34;55.28;100706.87;;;;-56
2019/10/03 15:52:02;;;;;;;10.57;2.29;;;;;;;20.36;55.12;100708.30;;;;-61
2019/10/03 15:55:02;;;;;;;9.57;1.88;;;;;;;20.36;55.12;100711.49;;;;-51
2019/10/03 15:58:03;;;;;;;6.97;2.33;;;;;;;20.34;55.03;100710.40;;;;-51
2019/10/03 16:01:02;;;;;;;6.22;2.40;;;;;;;20.33;55.11;100710.25;;;;-50
2019/10/03 16:04:02;;;;;;;10.25;2.21;;;;;;;20.32;55.21;100714.56;;;;-50
2019/10/03 16:07:02;;;;;;;5.91;1.98;;;;;;;20.31;55.22;100716.03;;;;-54
2019/10/03 16:10:02;;;;;;;6.45;2.06;;;;;;;20.32;55.21;100713.78;;;;-53
2019/10/03 16:13:02;;;;;;;6.29;2.41;;;;;;;20.31;55.13;100708.98;;;;-51
2019/10/03 16:16:02;;;;;;;7.73;2.04;;;;;;;20.31;55.11;100707.30;;;;-53
2019/10/03 16:19:02;;;;;;;5.22;1.92;;;;;;;20.31;55.18;100712.77;;;;-51
2019/10/03 16:22:02;;;;;;;5.70;1.99;;;;;;;20.31;55.16;100707.13;;;;-50
2019/10/03 16:25:02;;;;;;;6.32;2.24;;;;;;;20.32;55.20;100706.73;;;;-55
2019/10/03 16:28:02;;;;;;;4.99;1.79;;;;;;;20.34;55.13;100700.73;;;;-50
2019/10/03 16:31:02;;;;;;;5.85;1.97;;;;;;;20.34;55.12;100701.67;;;;-51
2019/10/03 16:39:02;;;;;;;6.16;2.00;;;;;;;20.32;55.21;100700.30;;;;-56
2019/10/03 16:42:02;;;;;;;8.65;2.01;;;;;;;20.31;55.31;100703.17;;;;-50
2019/10/03 16:45:02;;;;;;;4.86;1.90;;;;;;;20.31;55.26;100705.19;;;;-53
2019/10/03 16:48:02;;;;;;;6.15;1.92;;;;;;;20.32;55.22;100705.67;;;;-49
2019/10/03 16:51:02;;;;;;;11.17;2.20;;;;;;;20.33;55.21;100701.80;;;;-51
2019/10/03 16:54:02;;;;;;;4.68;1.98;;;;;;;20.33;55.19;100698.56;;;;-50